createdAt,value
2019-04-07T00:00:26.757Z,12.91
2019-04-07T00:02:57.071Z,12.93
2019-04-07T00:05:29.958Z,12.91
2019-04-07T00:08:00.817Z,12.91
2019-04-07T00:10:31.541Z,12.90
2019-04-07T00:13:02.050Z,12.87
2019-04-07T00:15:33.274Z,12.85
2019-04-07T00:18:03.758Z,12.84
2019-04-07T00:20:34.396Z,12.84
2019-04-07T00:23:04.730Z,12.83
2019-04-07T00:25:35.246Z,12.85
2019-04-07T00:28:05.880Z,12.85
2019-04-07T00:30:38.451Z,12.89
2019-04-07T00:33:09.703Z,12.87
2019-04-07T00:35:41.362Z,12.90
2019-04-07T00:38:11.625Z,12.87
2019-04-07T00:40:42.816Z,12.86
2019-04-07T00:43:13.725Z,12.84
2019-04-07T00:45:46.131Z,12.83
2019-04-07T00:48:16.873Z,12.82
2019-04-07T00:50:48.789Z,12.80
2019-04-07T00:53:19.014Z,12.79
2019-04-07T00:55:50.676Z,12.72
2019-04-07T00:58:21.471Z,12.72
2019-04-07T01:00:52.137Z,12.73
2019-04-07T01:03:22.685Z,12.67
2019-04-07T01:05:53.313Z,12.67
2019-04-07T01:08:23.752Z,12.72
2019-04-07T01:10:54.076Z,12.67
2019-04-07T01:13:24.719Z,12.66
2019-04-07T01:15:58.706Z,12.65
2019-04-07T01:18:32.691Z,12.58
2019-04-07T01:21:03.722Z,12.58
2019-04-07T01:23:36.389Z,12.58
2019-04-07T01:26:07.446Z,12.55
2019-04-07T01:28:37.945Z,12.53
2019-04-07T01:31:08.796Z,12.55
2019-04-07T01:33:40.033Z,12.55
2019-04-07T01:36:11.143Z,12.56
2019-04-07T01:38:44.487Z,12.57
2019-04-07T01:41:37.115Z,12.56
2019-04-07T01:44:32.096Z,12.55
2019-04-07T01:47:23.056Z,12.55
2019-04-07T01:50:27.650Z,12.54
2019-04-07T01:53:12.565Z,12.53
2019-04-07T01:56:05.436Z,12.48
2019-04-07T01:58:50.983Z,12.47
2019-04-07T02:01:43.913Z,12.41
2019-04-07T02:04:35.932Z,12.42
2019-04-07T02:07:16.458Z,12.42
2019-04-07T02:10:05.280Z,12.39
2019-04-07T02:13:01.110Z,12.37
2019-04-07T02:15:53.740Z,12.28
2019-04-07T02:18:46.614Z,12.23
2019-04-07T02:21:46.011Z,12.09
2019-04-07T02:24:26.778Z,11.99
2019-04-07T02:27:22.022Z,11.99
2019-04-07T02:30:14.518Z,11.91
2019-04-07T02:33:06.935Z,11.96
2019-04-07T02:36:15.604Z,11.88
2019-04-07T02:39:02.818Z,11.86
2019-04-07T02:41:51.822Z,11.73
2019-04-07T02:44:45.255Z,11.65
2019-04-07T02:47:25.645Z,11.51
2019-04-07T02:50:17.926Z,11.53
2019-04-07T02:52:55.409Z,11.41
2019-04-07T02:55:38.967Z,11.34
2019-04-07T02:58:33.060Z,11.35
2019-04-07T03:01:14.359Z,11.33
2019-04-07T03:04:03.346Z,11.27
2019-04-07T03:06:53.110Z,11.30
2019-04-07T03:09:53.442Z,11.26
2019-04-07T03:12:43.437Z,11.20
2019-04-07T03:15:25.295Z,11.18
2019-04-07T03:18:14.896Z,11.14
2019-04-07T03:21:13.466Z,11.04
2019-04-07T03:23:58.610Z,10.96
2019-04-07T03:26:49.089Z,10.90
2019-04-07T03:29:36.438Z,10.84
2019-04-07T03:32:45.620Z,10.74
2019-04-07T03:35:34.969Z,10.45
2019-04-07T03:38:31.395Z,10.45
2019-04-07T03:41:19.757Z,10.39
2019-04-07T03:43:59.156Z,10.47
2019-04-07T03:46:36.438Z,10.27
2019-04-07T03:49:31.606Z,10.27
2019-04-07T03:52:29.795Z,10.15
2019-04-07T03:55:19.289Z,9.98
2019-04-07T03:58:08.030Z,9.94
2019-04-07T04:01:25.520Z,9.86
2019-04-07T04:04:21.043Z,9.72
2019-04-07T04:07:27.582Z,9.56
2019-04-07T04:10:07.074Z,9.47
2019-04-07T04:12:45.630Z,9.41
2019-04-07T04:15:26.402Z,9.30
2019-04-07T04:17:59.322Z,9.28
2019-04-07T04:20:30.256Z,9.25
2019-04-07T04:23:01.885Z,9.26
2019-04-07T04:25:32.282Z,9.29
2019-04-07T04:28:02.757Z,9.23
2019-04-07T04:30:33.975Z,9.10
2019-04-07T04:33:04.351Z,8.96
2019-04-07T04:35:34.677Z,8.81
2019-04-07T04:38:06.114Z,8.68
2019-04-07T04:40:37.535Z,8.62
2019-04-07T04:43:07.916Z,8.51
2019-04-07T04:45:38.709Z,8.43
2019-04-07T04:48:09.080Z,8.36
2019-04-07T04:50:41.863Z,8.33
2019-04-07T04:53:12.622Z,8.29
2019-04-07T04:55:45.809Z,8.30
2019-04-07T04:58:16.226Z,8.36
2019-04-07T05:00:46.795Z,8.51
2019-04-07T05:03:17.371Z,8.72
2019-04-07T05:05:48.687Z,8.88
2019-04-07T05:08:18.995Z,9.04
2019-04-07T05:10:51.009Z,9.10
2019-04-07T05:13:21.493Z,9.09
2019-04-07T05:15:51.832Z,9.04
2019-04-07T05:18:22.309Z,9.06
2019-04-07T05:20:54.265Z,9.04
2019-04-07T05:23:25.160Z,9.01
2019-04-07T05:25:55.746Z,9.00
2019-04-07T05:28:26.596Z,9.04
2019-04-07T05:30:59.076Z,9.10
2019-04-07T05:33:29.379Z,9.17
2019-04-07T05:36:01.287Z,9.26
2019-04-07T05:38:31.775Z,9.42
2019-04-07T05:41:02.061Z,9.56
2019-04-07T05:43:32.772Z,9.88
2019-04-07T05:46:05.859Z,9.88
2019-04-07T05:48:35.400Z,10.28
2019-04-07T05:51:08.781Z,10.70
2019-04-07T05:53:39.957Z,11.01
2019-04-07T05:56:11.075Z,11.23
2019-04-07T05:58:42.918Z,11.40
2019-04-07T06:01:14.070Z,11.54
2019-04-07T06:03:44.746Z,11.66
2019-04-07T06:06:15.164Z,11.74
2019-04-07T06:08:48.590Z,11.77
2019-04-07T06:11:19.571Z,11.86
2019-04-07T06:13:50.465Z,11.99
2019-04-07T06:16:22.359Z,12.20
2019-04-07T06:18:53.862Z,12.80
2019-04-07T06:21:24.331Z,12.87
2019-04-07T06:24:13.408Z,12.55
2019-04-07T06:27:03.347Z,12.37
2019-04-07T06:30:00.020Z,12.50
2019-04-07T06:32:50.551Z,13.05
2019-04-07T06:35:21.024Z,13.86
2019-04-07T06:37:52.050Z,13.84
2019-04-07T06:40:23.131Z,14.16
2019-04-07T06:42:56.768Z,14.51
2019-04-07T06:45:33.365Z,14.46
2019-04-07T06:48:08.291Z,14.97
2019-04-07T06:50:57.779Z,15.87
2019-04-07T06:53:43.048Z,16.57
2019-04-07T06:56:38.726Z,16.86
2019-04-07T06:59:21.968Z,17.29
2019-04-07T07:02:14.746Z,17.22
2019-04-07T07:05:07.309Z,16.71
2019-04-07T07:07:45.849Z,16.52
2019-04-07T07:10:39.926Z,16.87
2019-04-07T07:13:32.201Z,16.84
2019-04-07T07:16:17.344Z,18.34
2019-04-07T07:19:24.437Z,20.56
2019-04-07T07:22:16.500Z,21.58
2019-04-07T07:24:47.608Z,21.96
2019-04-07T07:27:18.442Z,24.49
2019-04-07T07:29:52.535Z,25.86
2019-04-07T07:32:21.763Z,26.69
2019-04-07T07:34:55.287Z,26.02
2019-04-07T07:37:26.927Z,26.02
2019-04-07T07:39:57.425Z,25.87
2019-04-07T07:42:28.866Z,26.57
2019-04-07T07:44:59.218Z,26.56
2019-04-07T07:47:30.528Z,27.28
2019-04-07T07:50:04.896Z,27.52
2019-04-07T07:52:34.220Z,28.30
2019-04-07T07:55:05.777Z,30.26
2019-04-07T07:57:37.074Z,30.26
2019-04-07T08:00:08.447Z,30.65
2019-04-07T08:02:40.173Z,31.27
2019-04-07T08:05:12.334Z,31.38
2019-04-07T08:07:46.831Z,30.96
2019-04-07T08:10:18.599Z,31.33
2019-04-07T08:12:49.705Z,31.71
2019-04-07T08:15:25.422Z,30.58
2019-04-07T08:17:54.582Z,30.17
2019-04-07T08:20:26.299Z,29.13
2019-04-07T08:22:56.891Z,29.93
2019-04-07T08:25:28.150Z,29.31
2019-04-07T08:28:02.148Z,30.53
2019-04-07T08:30:30.783Z,30.53
2019-04-07T08:33:02.206Z,30.54
2019-04-07T08:35:39.475Z,28.96
2019-04-07T08:38:08.776Z,29.35
2019-04-07T08:40:40.513Z,31.67
2019-04-07T08:43:11.491Z,30.23
2019-04-07T08:45:44.870Z,30.23
2019-04-07T08:48:18.236Z,30.26
2019-04-07T08:50:49.645Z,30.51
2019-04-07T08:53:20.969Z,32.07
2019-04-07T08:55:54.427Z,33.54
2019-04-07T08:58:28.435Z,33.60
2019-04-07T09:00:56.181Z,34.20
2019-04-07T09:03:27.936Z,34.64
2019-04-07T09:05:59.878Z,31.87
2019-04-07T09:08:30.724Z,32.26
2019-04-07T09:11:23.265Z,32.67
2019-04-07T09:13:54.926Z,32.31
2019-04-07T09:16:40.481Z,32.31
2019-04-07T09:19:44.305Z,32.81
2019-04-07T09:22:34.614Z,32.49
2019-04-07T09:25:18.247Z,32.41
2019-04-07T09:28:04.207Z,32.61
2019-04-07T09:31:04.298Z,33.09
2019-04-07T09:33:54.032Z,32.41
2019-04-07T09:36:44.013Z,33.17
2019-04-07T09:39:54.781Z,35.01
2019-04-07T09:42:29.628Z,34.67
2019-04-07T09:45:18.502Z,34.54
2019-04-07T09:48:11.046Z,30.15
2019-04-07T09:51:06.952Z,30.55
2019-04-07T09:53:55.449Z,31.81
2019-04-07T09:56:44.055Z,30.64
2019-04-07T09:59:39.737Z,32.01
2019-04-07T10:02:35.471Z,31.09
2019-04-07T10:05:30.877Z,33.55
2019-04-07T10:08:22.413Z,33.55
2019-04-07T10:11:17.749Z,33.74
2019-04-07T10:14:23.098Z,31.95
2019-04-07T10:17:00.369Z,32.28
2019-04-07T10:19:56.013Z,31.83
2019-04-07T10:22:32.520Z,32.42
2019-04-07T10:25:15.548Z,31.89
2019-04-07T10:28:20.427Z,33.07
2019-04-07T10:31:13.798Z,33.64
2019-04-07T10:34:13.323Z,32.34
2019-04-07T10:36:51.679Z,31.76
2019-04-07T10:39:41.494Z,31.01
2019-04-07T10:42:38.791Z,31.01
2019-04-07T10:45:31.712Z,32.12
2019-04-07T10:48:24.361Z,31.76
2019-04-07T10:51:04.466Z,31.00
2019-04-07T10:53:42.311Z,31.23
2019-04-07T10:56:29.580Z,32.07
2019-04-07T10:59:19.890Z,30.19
2019-04-07T11:02:16.867Z,30.19
2019-04-07T11:05:06.888Z,30.81
2019-04-07T11:07:57.001Z,30.83
2019-04-07T11:10:50.798Z,30.54
2019-04-07T11:13:46.985Z,29.41
2019-04-07T11:16:36.628Z,29.75
2019-04-07T11:19:27.349Z,28.75
2019-04-07T11:22:15.054Z,29.44
2019-04-07T11:25:03.628Z,25.73
2019-04-07T11:27:45.097Z,23.75
2019-04-07T11:30:37.528Z,21.99
2019-04-07T11:33:30.131Z,21.73
2019-04-07T11:36:24.396Z,22.00
2019-04-07T11:39:02.661Z,21.17
2019-04-07T11:41:48.971Z,20.95
2019-04-07T11:44:28.074Z,21.05
2019-04-07T11:47:06.816Z,21.22
2019-04-07T11:49:44.730Z,21.17
2019-04-07T11:52:20.665Z,21.17
2019-04-07T11:54:57.307Z,21.45
2019-04-07T11:58:09.728Z,21.45
2019-04-07T12:00:51.431Z,21.39
2019-04-07T12:03:41.759Z,21.28
2019-04-07T12:06:34.326Z,21.27
2019-04-07T12:09:37.100Z,20.88
2019-04-07T12:12:24.618Z,20.75
2019-04-07T12:15:30.221Z,20.86
2019-04-07T12:18:32.876Z,21.01
2019-04-07T12:21:20.463Z,21.14
2019-04-07T12:24:03.708Z,21.13
2019-04-07T12:26:56.757Z,20.96
2019-04-07T12:30:02.489Z,20.99
2019-04-07T12:32:43.348Z,21.24
2019-04-07T12:35:32.982Z,21.35
2019-04-07T12:38:20.935Z,21.35
2019-04-07T12:41:20.995Z,21.39
2019-04-07T12:44:17.099Z,21.44
2019-04-07T12:47:05.414Z,21.44
2019-04-07T12:49:53.761Z,21.48
2019-04-07T12:52:57.816Z,21.50
2019-04-07T12:56:02.459Z,21.12
2019-04-07T12:58:51.687Z,21.67
2019-04-07T13:01:47.256Z,21.72
2019-04-07T13:04:38.108Z,21.77
2019-04-07T13:07:20.720Z,21.73
2019-04-07T13:13:14.564Z,22.07
2019-04-07T13:16:06.945Z,22.05
2019-04-07T13:19:02.078Z,22.41
2019-04-07T13:21:39.386Z,22.41
2019-04-07T13:24:38.582Z,21.71
2019-04-07T13:27:29.698Z,21.66
2019-04-07T13:30:14.303Z,21.94
2019-04-07T13:32:57.508Z,22.19
2019-04-07T13:36:06.071Z,21.87
2019-04-07T13:39:06.932Z,21.33
2019-04-07T13:42:02.194Z,21.17
2019-04-07T13:44:56.110Z,21.28
2019-04-07T13:47:58.195Z,21.41
2019-04-07T13:50:47.313Z,21.33
2019-04-07T13:53:48.998Z,21.40
2019-04-07T13:56:38.552Z,21.56
2019-04-07T13:59:27.270Z,21.58
2019-04-07T14:02:16.417Z,21.15
2019-04-07T14:04:55.769Z,20.83
2019-04-07T14:07:43.937Z,20.98
2019-04-07T14:10:34.669Z,21.11
2019-04-07T14:13:28.931Z,21.12
2019-04-07T14:16:12.857Z,21.23
2019-04-07T14:18:54.447Z,21.02
2019-04-07T14:21:45.152Z,20.82
2019-04-07T14:24:47.243Z,20.69
2019-04-07T14:27:42.752Z,20.58
2019-04-07T14:30:32.332Z,20.53
2019-04-07T14:33:21.438Z,20.78
2019-04-07T14:36:21.869Z,20.86
2019-04-07T14:39:15.786Z,20.72
2019-04-07T14:42:07.293Z,20.79
2019-04-07T14:44:54.303Z,20.70
2019-04-07T14:47:34.134Z,20.52
2019-04-07T14:50:23.212Z,20.51
2019-04-07T14:53:03.268Z,20.58
2019-04-07T14:56:11.081Z,20.63
2019-04-07T14:59:11.672Z,20.64
2019-04-07T15:02:00.010Z,20.76
2019-04-07T15:04:43.062Z,21.05
2019-04-07T15:07:48.807Z,21.22
2019-04-07T15:10:37.925Z,21.24
2019-04-07T15:13:18.185Z,21.27
2019-04-07T15:15:51.078Z,21.22
2019-04-07T15:18:21.684Z,21.33
2019-04-07T15:20:54.649Z,21.31
2019-04-07T15:23:29.217Z,21.20
2019-04-07T15:25:58.949Z,21.13
2019-04-07T15:28:33.202Z,21.14
2019-04-07T15:31:04.327Z,20.75
2019-04-07T15:33:39.485Z,20.50
2019-04-07T15:36:10.759Z,20.41
2019-04-07T15:38:48.589Z,20.44
2019-04-07T15:41:19.596Z,20.49
2019-04-07T15:43:54.977Z,20.58
2019-04-07T15:46:32.452Z,20.58
2019-04-07T15:49:08.839Z,20.61
2019-04-07T15:51:39.905Z,20.56
2019-04-07T15:54:10.513Z,20.59
2019-04-07T15:56:48.058Z,20.57
2019-04-07T15:59:18.842Z,20.62
2019-04-07T16:01:49.380Z,20.53
2019-04-07T16:04:25.151Z,20.32
2019-04-07T16:06:52.673Z,20.32
2019-04-07T16:09:34.624Z,20.32
2019-04-07T16:11:58.308Z,20.29
2019-04-07T16:14:28.400Z,20.24
2019-04-07T16:17:03.899Z,20.16
2019-04-07T16:19:40.356Z,20.06
2019-04-07T16:22:06.114Z,20.08
2019-04-07T16:24:37.208Z,19.99
2019-04-07T16:27:08.795Z,19.84
2019-04-07T16:29:39.812Z,19.78
2019-04-07T16:32:11.393Z,19.82
2019-04-07T16:34:42.842Z,19.81
2019-04-07T16:37:14.238Z,19.61
2019-04-07T16:39:45.705Z,19.61
2019-04-07T16:42:16.087Z,19.54
2019-04-07T16:44:47.096Z,19.52
2019-04-07T16:47:23.218Z,19.63
2019-04-07T16:49:50.381Z,19.63
2019-04-07T16:52:20.994Z,19.61
2019-04-07T16:54:54.808Z,19.61
2019-04-07T16:57:28.186Z,19.59
2019-04-07T16:59:59.486Z,19.52
2019-04-07T17:02:30.639Z,19.48
2019-04-07T17:05:03.917Z,19.48
2019-04-07T17:07:34.964Z,19.47
2019-04-07T17:10:06.852Z,19.39
2019-04-07T17:12:40.595Z,19.30
2019-04-07T17:15:12.198Z,19.23
2019-04-07T17:17:52.465Z,19.14
2019-04-07T17:20:22.964Z,19.11
2019-04-07T17:22:56.878Z,19.12
2019-04-07T17:25:32.781Z,19.15
2019-04-07T17:28:08.156Z,19.18
2019-04-07T17:30:46.469Z,19.19
2019-04-07T17:33:20.629Z,19.16
2019-04-07T17:35:55.328Z,19.15
2019-04-07T17:38:38.618Z,19.21
2019-04-07T17:41:10.292Z,19.20
2019-04-07T17:44:16.836Z,19.15
2019-04-07T17:47:35.444Z,19.11
2019-04-07T17:50:44.610Z,19.03
2019-04-07T17:53:40.246Z,18.89
2019-04-07T17:56:45.716Z,18.74
2019-04-07T17:59:48.431Z,18.66
2019-04-07T18:02:33.859Z,18.52
2019-04-07T18:05:29.267Z,18.35
2019-04-07T18:08:37.026Z,18.26
2019-04-07T18:11:32.840Z,18.23
2019-04-07T18:14:18.145Z,18.34
2019-04-07T18:17:07.351Z,18.22
2019-04-07T18:20:15.807Z,18.19
2019-04-07T18:23:05.459Z,18.10
2019-04-07T18:25:53.915Z,18.03
2019-04-07T18:28:44.350Z,17.97
2019-04-07T18:31:38.727Z,17.96
2019-04-07T18:34:33.497Z,17.87
2019-04-07T18:37:25.212Z,17.84
2019-04-07T18:40:15.210Z,17.88
2019-04-07T18:43:12.203Z,17.84
2019-04-07T18:45:59.931Z,17.85
2019-04-07T18:48:53.248Z,17.88
2019-04-07T18:51:49.345Z,17.95
2019-04-07T18:54:56.606Z,17.99
2019-04-07T18:57:40.059Z,17.96
2019-04-07T19:00:32.467Z,17.91
2019-04-07T19:03:16.387Z,17.88
2019-04-07T19:06:02.166Z,17.86
2019-04-07T19:08:56.187Z,17.75
2019-04-07T19:11:32.807Z,17.61
2019-04-07T19:14:47.839Z,17.55
2019-04-07T19:17:23.409Z,17.51
2019-04-07T19:20:13.247Z,17.48
2019-04-07T19:23:02.605Z,17.46
2019-04-07T19:25:45.325Z,17.36
2019-04-07T19:28:35.572Z,17.31
2019-04-07T19:31:25.804Z,17.30
2019-04-07T19:34:13.111Z,17.22
2019-04-07T19:37:00.301Z,17.11
2019-04-07T19:39:59.238Z,17.03
2019-04-07T19:42:49.290Z,16.89
2019-04-07T19:45:44.392Z,16.77
2019-04-07T19:48:30.904Z,16.60
2019-04-07T19:51:12.363Z,16.51
2019-04-07T19:54:04.642Z,16.36
2019-04-07T19:56:45.786Z,16.26
2019-04-07T19:59:39.357Z,16.15
2019-04-07T20:02:30.543Z,16.03
2019-04-07T20:05:19.532Z,15.98
2019-04-07T20:08:20.817Z,15.94
2019-04-07T20:11:09.682Z,15.91
2019-04-07T20:14:12.566Z,15.84
2019-04-07T20:17:17.427Z,15.78
2019-04-07T20:20:10.945Z,15.71
2019-04-07T20:23:04.386Z,15.65
2019-04-07T20:25:52.766Z,15.62
2019-04-07T20:28:45.091Z,15.59
2019-04-07T20:31:36.451Z,15.59
2019-04-07T20:34:16.337Z,15.54
2019-04-07T20:37:00.555Z,15.52
2019-04-07T20:40:00.185Z,15.55
2019-04-07T20:42:48.506Z,15.44
2019-04-07T20:45:52.437Z,15.36
2019-04-07T20:48:41.122Z,15.36
2019-04-07T20:51:19.377Z,15.31
2019-04-07T20:53:59.794Z,15.27
2019-04-07T20:56:56.282Z,15.20
2019-04-07T21:00:03.661Z,15.14
2019-04-07T21:03:19.611Z,15.11
2019-04-07T21:05:55.930Z,15.07
2019-04-07T21:08:56.780Z,15.04
2019-04-07T21:11:54.076Z,14.93
2019-04-07T21:14:38.940Z,14.82
2019-04-07T21:17:24.540Z,14.65
2019-04-07T21:20:14.563Z,14.56
2019-04-07T21:23:04.852Z,14.55
2019-04-07T21:25:59.410Z,14.66
2019-04-07T21:28:54.879Z,14.64
2019-04-07T21:31:53.377Z,14.54
2019-04-07T21:35:00.544Z,14.36
2019-04-07T21:37:52.979Z,14.32
2019-04-07T21:40:45.881Z,14.26
2019-04-07T21:43:29.959Z,14.11
2019-04-07T21:46:26.122Z,14.06
2019-04-07T21:49:12.582Z,14.01
2019-04-07T21:52:08.381Z,13.90
2019-04-07T21:54:55.627Z,13.78
2019-04-07T21:57:46.258Z,13.75
2019-04-07T22:00:33.172Z,13.74
2019-04-07T22:03:23.964Z,13.74
2019-04-07T22:06:08.870Z,13.66
2019-04-07T22:08:45.473Z,13.60
2019-04-07T22:11:15.581Z,13.47
2019-04-07T22:13:47.063Z,13.41
2019-04-07T22:16:18.559Z,13.30
2019-04-07T22:18:51.201Z,13.21
2019-04-07T22:21:23.203Z,13.27
2019-04-07T22:23:54.318Z,13.29
2019-04-07T22:26:24.610Z,13.30
2019-04-07T22:28:56.920Z,13.22
2019-04-07T22:31:32.127Z,13.16
2019-04-07T22:34:03.644Z,13.06
2019-04-07T22:36:35.671Z,13.02
2019-04-07T22:39:07.843Z,13.01
2019-04-07T22:41:41.124Z,12.99
2019-04-07T22:44:11.318Z,12.93
2019-04-07T22:46:41.722Z,12.98
2019-04-07T22:49:12.220Z,12.97
2019-04-07T22:51:44.723Z,12.95
2019-04-07T22:54:15.123Z,12.90
2019-04-07T22:56:45.487Z,12.79
2019-04-07T22:59:15.834Z,12.69
2019-04-07T23:01:47.286Z,12.62
2019-04-07T23:04:18.236Z,12.44
2019-04-07T23:06:48.553Z,12.29
2019-04-07T23:09:18.835Z,12.20
2019-04-07T23:11:49.223Z,12.12
2019-04-07T23:14:19.890Z,12.05
2019-04-07T23:16:52.010Z,11.95
2019-04-07T23:19:22.802Z,11.82
2019-04-07T23:21:53.507Z,11.75
2019-04-07T23:24:25.529Z,11.67
2019-04-07T23:26:56.479Z,11.58
2019-04-07T23:29:26.929Z,11.46
2019-04-07T23:31:57.647Z,11.41
2019-04-07T23:34:27.992Z,11.36
2019-04-07T23:37:01.783Z,11.14
2019-04-07T23:39:30.810Z,11.14
2019-04-07T23:42:01.259Z,11.09
2019-04-07T23:44:31.782Z,11.03
2019-04-07T23:47:02.747Z,10.99
2019-04-07T23:49:35.191Z,11.00
2019-04-07T23:52:07.597Z,10.99
2019-04-07T23:54:38.589Z,10.87
2019-04-07T23:57:09.398Z,10.78
2019-04-07T23:59:40.100Z,10.72
